createdAt,value
2018-12-17T00:00:48.408Z,103.32
2018-12-17T00:03:16.095Z,89.90
2018-12-17T00:05:43.875Z,95.67
2018-12-17T00:08:11.572Z,88.05
2018-12-17T00:10:39.175Z,92.20
2018-12-17T00:13:06.807Z,99.20
2018-12-17T00:15:34.413Z,92.37
2018-12-17T00:18:02.061Z,89.72
2018-12-17T00:20:29.677Z,96.00
2018-12-17T00:22:57.305Z,108.70
2018-12-17T00:25:24.956Z,90.60
2018-12-17T00:27:52.613Z,102.25
2018-12-17T00:30:20.224Z,112.22
2018-12-17T00:32:48.083Z,91.15
2018-12-17T00:35:15.860Z,93.45
2018-12-17T00:37:43.522Z,80.45
2018-12-17T00:40:11.383Z,96.65
2018-12-17T00:42:38.985Z,95.35
2018-12-17T00:45:07.206Z,86.72
2018-12-17T00:47:34.868Z,94.47
2018-12-17T00:50:02.514Z,97.25
2018-12-17T00:52:30.142Z,94.20
2018-12-17T00:54:57.815Z,81.80
2018-12-17T00:57:25.460Z,85.70
2018-12-17T00:59:53.075Z,80.57
2018-12-17T01:02:20.744Z,71.20
2018-12-17T01:04:48.354Z,90.75
2018-12-17T01:07:17.923Z,84.40
2018-12-17T01:09:45.539Z,90.85
2018-12-17T01:12:13.151Z,72.55
2018-12-17T01:14:46.742Z,65.37
2018-12-17T01:17:14.511Z,74.40
2018-12-17T01:19:42.149Z,74.50
2018-12-17T01:22:09.731Z,74.97
2018-12-17T01:24:37.320Z,77.87
2018-12-17T01:27:04.996Z,71.60
2018-12-17T01:29:32.625Z,72.35
2018-12-17T01:32:00.231Z,77.47
2018-12-17T01:34:27.835Z,84.67
2018-12-17T01:36:55.429Z,76.75
2018-12-17T01:39:23.065Z,84.70
2018-12-17T01:41:50.726Z,80.85
2018-12-17T01:44:18.318Z,83.92
2018-12-17T01:46:45.922Z,80.22
2018-12-17T01:49:13.551Z,73.85
2018-12-17T01:51:41.160Z,73.20
2018-12-17T01:54:08.799Z,65.12
2018-12-17T01:56:36.429Z,62.50
2018-12-17T01:59:04.028Z,71.10
2018-12-17T02:01:31.834Z,65.92
2018-12-17T02:03:59.524Z,72.05
2018-12-17T02:06:27.225Z,63.40
2018-12-17T02:08:54.852Z,62.38
2018-12-17T02:11:22.430Z,58.98
2018-12-17T02:13:50.028Z,58.90
2018-12-17T02:16:17.621Z,53.45
2018-12-17T02:18:46.351Z,66.53
2018-12-17T02:21:14.183Z,60.95
2018-12-17T02:23:41.975Z,56.10
2018-12-17T02:26:10.606Z,62.45
2018-12-17T02:28:38.347Z,57.93
2018-12-17T02:31:06.215Z,56.70
2018-12-17T02:33:34.004Z,58.90
2018-12-17T02:36:01.888Z,61.05
2018-12-17T02:38:29.637Z,57.53
2018-12-17T02:40:57.366Z,56.90
2018-12-17T02:43:24.972Z,70.97
2018-12-17T02:45:52.586Z,77.50
2018-12-17T02:48:20.254Z,73.25
2018-12-17T02:50:47.854Z,83.70
2018-12-17T02:53:15.488Z,83.42
2018-12-17T02:55:43.112Z,74.40
2018-12-17T02:58:10.773Z,107.20
2018-12-17T03:00:38.358Z,80.57
2018-12-17T03:03:06.016Z,98.03
2018-12-17T03:05:33.650Z,88.35
2018-12-17T03:08:01.301Z,100.33
2018-12-17T03:10:28.924Z,74.92
2018-12-17T03:12:56.514Z,79.60
2018-12-17T03:15:24.156Z,80.95
2018-12-17T03:17:51.807Z,83.65
2018-12-17T03:20:19.460Z,82.15
2018-12-17T03:22:47.067Z,96.32
2018-12-17T03:25:14.720Z,91.87
2018-12-17T03:27:42.323Z,76.75
2018-12-17T03:30:09.927Z,75.25
2018-12-17T03:32:37.557Z,66.47
2018-12-17T03:35:05.272Z,70.55
2018-12-17T03:37:32.875Z,69.90
2018-12-17T03:40:00.563Z,61.92
2018-12-17T03:42:28.201Z,65.00
2018-12-17T03:44:55.808Z,54.63
2018-12-17T03:47:23.399Z,60.12
2018-12-17T03:49:51.132Z,56.68
2018-12-17T03:52:18.706Z,50.92
2018-12-17T03:54:46.410Z,62.08
2018-12-17T03:57:14.028Z,58.52
2018-12-17T03:59:41.736Z,51.45
2018-12-17T04:02:10.274Z,51.77
2018-12-17T04:04:38.023Z,61.65
2018-12-17T04:07:05.723Z,61.65
2018-12-17T04:09:33.348Z,64.97
2018-12-17T04:12:00.955Z,60.78
2018-12-17T04:14:28.631Z,64.12
2018-12-17T04:16:56.255Z,73.57
2018-12-17T04:19:23.902Z,69.12
2018-12-17T04:21:52.989Z,71.15
2018-12-17T04:24:20.890Z,67.15
2018-12-17T04:26:48.523Z,72.27
2018-12-17T04:29:16.145Z,81.15
2018-12-17T04:31:43.732Z,72.37
2018-12-17T04:34:11.361Z,73.78
2018-12-17T04:36:38.943Z,90.72
2018-12-17T04:39:06.660Z,78.83
2018-12-17T04:41:34.288Z,84.17
2018-12-17T04:44:01.911Z,89.15
2018-12-17T04:46:29.502Z,78.62
2018-12-17T04:48:57.158Z,85.50
2018-12-17T04:51:24.998Z,75.78
2018-12-17T04:53:52.659Z,79.62
2018-12-17T04:56:20.295Z,69.65
2018-12-17T04:58:47.917Z,75.17
2018-12-17T05:01:15.574Z,63.20
2018-12-17T05:03:44.633Z,79.92
2018-12-17T05:06:12.229Z,77.08
2018-12-17T05:08:39.844Z,64.27
2018-12-17T05:11:07.539Z,74.17
2018-12-17T05:13:35.181Z,81.95
2018-12-17T05:16:02.743Z,81.00
2018-12-17T05:18:30.352Z,76.35
2018-12-17T05:20:57.955Z,68.25
2018-12-17T05:23:25.672Z,81.12
2018-12-17T05:25:53.306Z,73.45
2018-12-17T05:28:20.939Z,76.72
2018-12-17T05:30:48.537Z,71.87
2018-12-17T05:33:16.477Z,74.00
2018-12-17T05:35:44.079Z,72.95
2018-12-17T05:38:12.233Z,66.80
2018-12-17T05:40:40.006Z,74.40
2018-12-17T05:43:07.613Z,78.60
2018-12-17T05:45:35.199Z,83.90
2018-12-17T05:48:02.759Z,78.55
2018-12-17T05:50:30.392Z,77.47
2018-12-17T05:52:58.036Z,77.05
2018-12-17T05:55:25.621Z,77.92
2018-12-17T05:57:53.246Z,79.15
2018-12-17T06:00:20.962Z,69.97
2018-12-17T06:02:48.596Z,65.92
2018-12-17T06:05:16.192Z,73.28
2018-12-17T06:07:43.883Z,67.92
2018-12-17T06:10:11.501Z,64.67
2018-12-17T06:12:39.087Z,80.65
2018-12-17T06:15:06.925Z,85.45
2018-12-17T06:17:34.487Z,88.95
2018-12-17T06:20:02.148Z,86.45
2018-12-17T06:22:29.715Z,72.12
2018-12-17T06:24:57.343Z,71.20
2018-12-17T06:27:24.926Z,75.75
2018-12-17T06:29:52.624Z,70.28
2018-12-17T06:34:55.956Z,60.48
2018-12-17T06:37:23.539Z,61.92
2018-12-17T06:39:51.220Z,50.03
2018-12-17T06:42:18.823Z,61.40
2018-12-17T06:44:46.445Z,55.67
2018-12-17T06:47:14.036Z,54.73
2018-12-17T06:49:41.699Z,57.00
2018-12-17T06:52:09.271Z,61.83
2018-12-17T06:54:36.973Z,55.25
2018-12-17T06:57:04.948Z,49.27
2018-12-17T06:59:32.599Z,43.75
2018-12-17T07:02:00.367Z,48.78
2018-12-17T07:04:27.999Z,71.67
2018-12-17T07:06:55.562Z,50.28
2018-12-17T07:09:23.367Z,45.10
2018-12-17T07:11:50.965Z,55.52
2018-12-17T07:14:18.617Z,54.40
2018-12-17T07:16:46.425Z,50.00
2018-12-17T07:19:14.103Z,41.35
2018-12-17T07:21:41.689Z,43.28
2018-12-17T07:24:09.339Z,43.70
2018-12-17T07:26:36.943Z,36.65
2018-12-17T07:29:04.508Z,37.40
2018-12-17T07:31:32.702Z,43.65
2018-12-17T07:34:00.550Z,39.92
2018-12-17T07:36:28.148Z,57.55
2018-12-17T07:39:08.477Z,92.90
2018-12-17T07:41:45.369Z,71.45
2018-12-17T07:44:13.009Z,54.58
2018-12-17T07:46:40.923Z,59.83
2018-12-17T07:49:08.555Z,51.02
2018-12-17T07:51:36.891Z,52.95
2018-12-17T07:54:04.698Z,52.53
2018-12-17T07:56:32.413Z,43.42
2018-12-17T07:59:00.087Z,44.03
2018-12-17T08:01:27.839Z,41.25
2018-12-17T08:03:55.549Z,55.33
2018-12-17T08:06:23.197Z,38.88
2018-12-17T08:08:50.971Z,41.95
2018-12-17T08:11:18.665Z,36.40
2018-12-17T08:13:46.496Z,40.25
2018-12-17T08:16:14.294Z,42.70
2018-12-17T08:18:41.979Z,37.33
2018-12-17T08:21:09.692Z,36.90
2018-12-17T08:23:37.663Z,33.80
2018-12-17T08:26:06.217Z,40.03
2018-12-17T08:28:34.368Z,32.98
2018-12-17T08:31:02.054Z,47.70
2018-12-17T08:33:29.783Z,27.40
2018-12-17T08:35:57.417Z,33.78
2018-12-17T08:38:28.005Z,29.25
2018-12-17T08:40:55.997Z,30.55
2018-12-17T08:43:23.643Z,32.25
2018-12-17T08:45:51.455Z,34.67
2018-12-17T08:48:19.355Z,32.90
2018-12-17T08:50:47.303Z,40.88
2018-12-17T08:53:15.280Z,40.12
2018-12-17T08:55:43.206Z,40.28
2018-12-17T08:58:11.168Z,39.95
2018-12-17T09:00:39.088Z,34.73
2018-12-17T09:03:07.162Z,36.28
2018-12-17T09:05:35.181Z,38.17
2018-12-17T09:08:03.016Z,39.70
2018-12-17T09:10:31.144Z,29.98
2018-12-17T09:12:58.858Z,30.85
2018-12-17T09:15:27.588Z,41.63
2018-12-17T09:17:55.347Z,37.58
2018-12-17T09:20:23.263Z,37.05
2018-12-17T09:22:50.863Z,30.50
2018-12-17T09:25:18.844Z,34.08
2018-12-17T09:27:46.536Z,34.67
2018-12-17T09:30:18.354Z,37.83
2018-12-17T09:32:44.536Z,32.55
2018-12-17T09:35:12.179Z,40.75
2018-12-17T09:37:40.067Z,35.17
2018-12-17T09:40:08.001Z,37.25
2018-12-17T09:42:35.987Z,36.33
2018-12-17T09:45:05.021Z,28.60
2018-12-17T09:47:32.633Z,32.17
2018-12-17T09:50:00.481Z,30.08
2018-12-17T09:52:28.260Z,31.40
2018-12-17T09:54:56.500Z,30.62
2018-12-17T09:57:24.607Z,25.25
2018-12-17T09:59:52.604Z,35.75
2018-12-17T10:02:20.258Z,24.55
2018-12-17T10:04:49.544Z,20.12
2018-12-17T10:09:51.477Z,26.82
2018-12-17T10:12:33.614Z,23.25
2018-12-17T10:15:01.797Z,29.48
2018-12-17T10:17:29.455Z,24.00
2018-12-17T10:19:57.263Z,32.53
2018-12-17T10:22:25.774Z,25.05
2018-12-17T10:24:53.627Z,25.75
2018-12-17T10:27:21.643Z,31.05
2018-12-17T10:29:49.793Z,26.45
2018-12-17T10:32:17.645Z,27.67
2018-12-17T10:34:45.773Z,33.95
2018-12-17T10:37:14.114Z,29.48
2018-12-17T10:39:42.512Z,29.50
2018-12-17T10:42:10.357Z,27.40
2018-12-17T10:44:38.884Z,29.85
2018-12-17T10:47:07.494Z,27.42
2018-12-17T10:49:35.209Z,31.50
2018-12-17T10:52:05.105Z,28.27
2018-12-17T10:54:34.697Z,34.25
2018-12-17T10:57:02.611Z,29.85
2018-12-17T10:59:31.022Z,28.50
2018-12-17T11:02:00.934Z,28.57
2018-12-17T11:04:30.621Z,25.08
2018-12-17T11:06:59.320Z,22.80
2018-12-17T11:09:27.128Z,36.90
2018-12-17T11:11:56.398Z,54.73
2018-12-17T11:14:24.694Z,31.12
2018-12-17T11:16:52.353Z,29.92
2018-12-17T11:19:20.191Z,30.00
2018-12-17T11:21:48.043Z,32.03
2018-12-17T11:24:15.727Z,30.45
2018-12-17T11:26:44.186Z,45.28
2018-12-17T11:29:13.367Z,27.73
2018-12-17T11:31:41.363Z,42.03
2018-12-17T11:34:09.530Z,25.88
2018-12-17T11:36:37.445Z,25.08
2018-12-17T11:39:07.741Z,29.95
2018-12-17T11:41:35.552Z,23.70
2018-12-17T11:44:03.294Z,27.77
2018-12-17T11:46:30.997Z,24.60
2018-12-17T11:48:59.335Z,20.43
2018-12-17T11:51:27.236Z,34.92
2018-12-17T11:53:54.975Z,26.75
2018-12-17T11:56:27.097Z,25.12
2018-12-17T11:58:55.484Z,32.83
2018-12-17T12:01:23.176Z,35.23
2018-12-17T12:03:50.838Z,33.33
2018-12-17T12:06:18.636Z,26.23
2018-12-17T12:08:46.974Z,24.07
2018-12-17T12:11:14.920Z,28.27
2018-12-17T12:13:42.909Z,24.25
2018-12-17T12:16:10.849Z,33.70
2018-12-17T12:18:39.000Z,27.60
2018-12-17T12:21:07.314Z,23.32
2018-12-17T12:23:47.179Z,30.15
2018-12-17T12:26:15.267Z,36.93
2018-12-17T12:28:43.235Z,32.80
2018-12-17T12:31:11.201Z,26.77
2018-12-17T12:33:38.868Z,29.50
2018-12-17T12:36:06.596Z,28.50
2018-12-17T12:38:34.219Z,39.20
2018-12-17T12:41:01.981Z,30.02
2018-12-17T12:43:29.740Z,39.58
2018-12-17T12:45:57.426Z,26.65
2018-12-17T12:48:25.341Z,26.77
2018-12-17T12:50:53.009Z,28.95
2018-12-17T12:53:20.647Z,29.00
2018-12-17T12:55:48.740Z,30.60
2018-12-17T12:58:16.439Z,25.00
2018-12-17T13:00:44.232Z,19.77
2018-12-17T13:03:11.931Z,19.57
2018-12-17T13:05:39.590Z,34.15
2018-12-17T13:08:07.558Z,25.60
2018-12-17T13:10:35.474Z,20.62
2018-12-17T13:13:03.586Z,25.15
2018-12-17T13:15:31.542Z,19.87
2018-12-17T13:17:59.436Z,21.15
2018-12-17T13:20:27.353Z,20.85
2018-12-17T13:22:55.294Z,17.92
2018-12-17T13:25:24.703Z,22.50
2018-12-17T13:27:52.459Z,20.72
2018-12-17T13:30:20.570Z,23.32
2018-12-17T13:32:48.944Z,35.10
2018-12-17T13:35:16.795Z,29.27
2018-12-17T13:37:44.498Z,24.40
2018-12-17T13:40:12.136Z,33.60
2018-12-17T13:42:40.070Z,20.12
2018-12-17T13:45:08.279Z,21.70
2018-12-17T13:47:36.094Z,24.50
2018-12-17T13:50:09.954Z,26.97
2018-12-17T13:52:43.507Z,19.73
2018-12-17T13:55:12.085Z,22.93
2018-12-17T13:57:40.818Z,31.10
2018-12-17T14:00:11.772Z,21.37
2018-12-17T14:02:40.047Z,28.87
2018-12-17T14:05:07.982Z,25.90
2018-12-17T14:07:36.270Z,22.30
2018-12-17T14:10:12.086Z,25.35
2018-12-17T14:12:40.201Z,24.02
2018-12-17T14:15:08.209Z,18.62
2018-12-17T14:17:36.290Z,32.98
2018-12-17T14:20:12.188Z,27.85
2018-12-17T14:22:40.920Z,28.77
2018-12-17T14:25:09.032Z,17.70
2018-12-17T14:27:37.099Z,24.37
2018-12-17T14:30:07.648Z,19.20
2018-12-17T14:32:35.554Z,27.48
2018-12-17T14:35:03.935Z,25.08
2018-12-17T14:37:31.607Z,36.53
2018-12-17T14:39:59.807Z,34.27
2018-12-17T14:42:28.906Z,46.70
2018-12-17T14:44:57.216Z,33.45
2018-12-17T14:47:28.464Z,32.03
2018-12-17T14:49:56.980Z,30.75
2018-12-17T14:52:24.858Z,32.73
2018-12-17T14:54:53.517Z,40.75
2018-12-17T14:57:21.681Z,51.02
2018-12-17T14:59:50.089Z,31.65
2018-12-17T15:02:18.569Z,28.83
2018-12-17T15:04:47.046Z,22.07
2018-12-17T15:07:15.738Z,25.05
2018-12-17T15:09:44.373Z,21.90
2018-12-17T15:12:13.166Z,25.40
2018-12-17T15:14:41.209Z,17.82
2018-12-17T15:17:09.749Z,32.38
2018-12-17T15:19:37.594Z,26.80
2018-12-17T15:22:05.491Z,28.10
2018-12-17T15:24:40.243Z,25.25
2018-12-17T15:27:02.992Z,26.42
2018-12-17T15:29:31.153Z,25.02
2018-12-17T15:31:58.955Z,25.50
2018-12-17T15:34:34.693Z,22.60
2018-12-17T15:37:02.339Z,25.17
2018-12-17T15:39:29.958Z,22.42
2018-12-17T15:41:57.829Z,25.00
2018-12-17T15:44:25.667Z,26.30
2018-12-17T15:46:53.798Z,20.95
2018-12-17T15:49:21.605Z,17.95
2018-12-17T15:51:49.373Z,25.62
2018-12-17T15:54:17.132Z,26.80
2018-12-17T15:56:45.064Z,22.50
2018-12-17T15:59:12.987Z,32.95
2018-12-17T16:01:40.620Z,27.15
2018-12-17T16:04:09.016Z,25.27
2018-12-17T16:06:36.724Z,31.40
2018-12-17T16:09:08.058Z,42.88
2018-12-17T16:11:35.731Z,26.02
2018-12-17T16:14:03.518Z,24.37
2018-12-17T16:16:31.285Z,20.92
2018-12-17T16:18:59.021Z,34.63
2018-12-17T16:21:26.721Z,22.95
2018-12-17T16:23:54.537Z,19.82
2018-12-17T16:26:22.205Z,20.12
2018-12-17T16:28:49.906Z,26.95
2018-12-17T16:31:17.589Z,32.93
2018-12-17T16:33:45.276Z,21.95
2018-12-17T16:36:25.774Z,22.98
2018-12-17T16:38:54.240Z,21.52
2018-12-17T16:41:21.822Z,13.65
2018-12-17T16:43:49.680Z,17.75
2018-12-17T16:46:17.792Z,19.10
2018-12-17T16:48:45.442Z,22.85
2018-12-17T16:51:13.221Z,16.93
2018-12-17T16:53:40.868Z,22.27
2018-12-17T16:56:09.034Z,21.00
2018-12-17T16:58:36.754Z,27.02
2018-12-17T17:01:04.494Z,20.25
2018-12-17T17:03:32.174Z,22.73
2018-12-17T17:05:59.791Z,27.58
2018-12-17T17:08:27.531Z,15.80
2018-12-17T17:10:55.145Z,23.38
2018-12-17T17:13:22.809Z,15.70
2018-12-17T17:15:51.106Z,24.85
2018-12-17T17:18:19.467Z,21.15
2018-12-17T17:20:47.150Z,24.25
2018-12-17T17:23:14.898Z,19.87
2018-12-17T17:25:42.617Z,17.07
2018-12-17T17:28:10.202Z,14.75
2018-12-17T17:30:37.983Z,26.60
2018-12-17T17:33:05.681Z,16.82
2018-12-17T17:35:33.462Z,23.73
2018-12-17T17:38:01.155Z,17.12
2018-12-17T17:40:28.802Z,26.45
2018-12-17T17:42:56.640Z,16.62
2018-12-17T17:45:24.321Z,30.08
2018-12-17T17:47:52.066Z,18.42
2018-12-17T17:50:19.654Z,21.48
2018-12-17T17:52:47.277Z,20.00
2018-12-17T17:55:14.902Z,20.88
2018-12-17T17:57:42.641Z,16.25
2018-12-17T18:00:10.593Z,17.57
2018-12-17T18:02:38.324Z,20.55
2018-12-17T18:05:06.146Z,22.30
2018-12-17T18:07:34.957Z,25.08
2018-12-17T18:10:04.641Z,28.47
2018-12-17T18:12:32.242Z,19.50
2018-12-17T18:14:59.888Z,18.07
2018-12-17T18:17:27.784Z,21.82
2018-12-17T18:19:55.437Z,20.32
2018-12-17T18:22:23.115Z,31.45
2018-12-17T18:24:50.843Z,31.77
2018-12-17T18:27:18.463Z,27.85
2018-12-17T18:29:46.222Z,30.68
2018-12-17T18:32:13.924Z,26.10
2018-12-17T18:34:41.563Z,24.12
2018-12-17T18:37:09.201Z,40.75
2018-12-17T18:39:37.057Z,31.45
2018-12-17T18:42:04.701Z,18.50
2018-12-17T18:44:32.294Z,26.23
2018-12-17T18:47:00.083Z,21.33
2018-12-17T18:49:27.715Z,29.37
2018-12-17T18:51:55.335Z,17.23
2018-12-17T18:54:23.251Z,29.92
2018-12-17T18:56:50.929Z,17.55
2018-12-17T18:59:18.735Z,33.45
2018-12-17T19:01:46.389Z,22.93
2018-12-17T19:04:14.051Z,19.67
2018-12-17T19:06:41.784Z,19.80
2018-12-17T19:09:09.492Z,22.80
2018-12-17T19:11:37.202Z,20.43
2018-12-17T19:14:04.876Z,25.62
2018-12-17T19:16:32.607Z,20.77
2018-12-17T19:19:00.281Z,19.55
2018-12-17T19:21:27.915Z,26.27
2018-12-17T19:23:55.521Z,21.07
2018-12-17T19:26:23.132Z,20.90
2018-12-17T19:28:50.789Z,21.68
2018-12-17T19:31:18.418Z,13.35
2018-12-17T19:33:46.194Z,15.45
2018-12-17T19:36:13.803Z,17.67
2018-12-17T19:38:41.464Z,24.07
2018-12-17T19:41:09.060Z,23.45
2018-12-17T19:43:36.663Z,18.62
2018-12-17T19:46:04.263Z,14.75
2018-12-17T19:48:31.890Z,19.20
2018-12-17T19:50:59.475Z,15.95
2018-12-17T19:53:27.140Z,17.65
2018-12-17T19:55:54.745Z,15.98
2018-12-17T19:58:22.420Z,16.70
2018-12-17T20:00:50.152Z,14.43
2018-12-17T20:03:17.813Z,18.73
2018-12-17T20:05:45.415Z,23.32
2018-12-17T20:08:13.220Z,15.03
2018-12-17T20:10:40.786Z,11.43
2018-12-17T20:13:08.402Z,13.68
2018-12-17T20:15:36.031Z,17.32
2018-12-17T20:18:03.742Z,12.30
2018-12-17T20:20:31.424Z,9.50
2018-12-17T20:22:59.048Z,10.15
2018-12-17T20:25:28.092Z,10.20
2018-12-17T20:27:55.912Z,10.43
2018-12-17T20:30:23.511Z,11.40
2018-12-17T20:32:53.718Z,11.00
2018-12-17T20:35:21.018Z,14.23
2018-12-17T20:37:48.598Z,14.90
2018-12-17T20:40:16.288Z,17.07
2018-12-17T20:42:44.002Z,11.53
2018-12-17T20:45:11.774Z,7.10
2018-12-17T20:47:39.410Z,13.08
2018-12-17T20:50:07.384Z,21.33
2018-12-17T20:52:35.007Z,17.50
2018-12-17T20:55:02.568Z,18.70
2018-12-17T20:57:30.269Z,14.70
2018-12-17T20:59:58.067Z,21.37
2018-12-17T21:02:25.686Z,14.60
2018-12-17T21:04:53.561Z,18.42
2018-12-17T21:07:21.253Z,18.32
2018-12-17T21:09:48.903Z,20.50
2018-12-17T21:12:16.599Z,13.50
2018-12-17T21:14:44.218Z,9.75
2018-12-17T21:17:11.801Z,9.98
2018-12-17T21:19:39.566Z,13.65
2018-12-17T21:22:09.460Z,15.55
2018-12-17T21:24:37.079Z,13.32
2018-12-17T21:27:04.755Z,13.30
2018-12-17T21:29:32.392Z,23.85
2018-12-17T21:32:00.006Z,18.50
2018-12-17T21:34:27.700Z,13.68
2018-12-17T21:36:55.306Z,14.20
2018-12-17T21:39:22.901Z,16.07
2018-12-17T21:41:50.724Z,13.98
2018-12-17T21:44:18.295Z,14.35
2018-12-17T21:46:45.945Z,13.10
2018-12-17T21:49:13.716Z,10.43
2018-12-17T21:51:41.403Z,9.00
2018-12-17T21:54:08.991Z,21.62
2018-12-17T21:56:36.739Z,13.83
2018-12-17T21:59:04.623Z,9.03
2018-12-17T22:01:32.281Z,15.45
2018-12-17T22:03:59.904Z,16.73
2018-12-17T22:06:27.469Z,18.87
2018-12-17T22:08:55.151Z,10.35
2018-12-17T22:11:22.772Z,14.87
2018-12-17T22:13:50.389Z,12.98
2018-12-17T22:16:18.126Z,11.25
2018-12-17T22:18:45.728Z,11.15
2018-12-17T22:21:13.351Z,7.40
2018-12-17T22:23:40.955Z,11.70
2018-12-17T22:26:08.541Z,20.10
2018-12-17T22:28:36.143Z,15.68
2018-12-17T22:31:03.760Z,18.85
2018-12-17T22:33:31.325Z,12.50
2018-12-17T22:35:58.924Z,6.50
2018-12-17T22:38:26.590Z,7.33
2018-12-17T22:40:54.156Z,11.83
2018-12-17T22:43:21.777Z,7.47
2018-12-17T22:45:49.345Z,11.12
2018-12-17T22:48:16.997Z,9.33
2018-12-17T22:50:44.572Z,8.30
2018-12-17T22:53:12.147Z,11.40
2018-12-17T22:55:39.804Z,9.88
2018-12-17T22:58:07.352Z,9.63
2018-12-17T23:00:34.961Z,14.47
2018-12-17T23:03:02.572Z,10.95
2018-12-17T23:05:30.179Z,16.90
2018-12-17T23:07:57.827Z,10.10
2018-12-17T23:10:39.178Z,12.63
2018-12-17T23:13:18.601Z,12.03
2018-12-17T23:15:58.178Z,15.88
2018-12-17T23:18:25.344Z,13.32
2018-12-17T23:20:53.442Z,4.60
2018-12-17T23:23:21.415Z,13.13
2018-12-17T23:25:48.967Z,6.67
2018-12-17T23:28:16.597Z,11.00
2018-12-17T23:30:44.188Z,12.28
2018-12-17T23:33:11.793Z,8.85
2018-12-17T23:35:39.467Z,13.98
2018-12-17T23:38:07.279Z,6.22
2018-12-17T23:40:35.135Z,13.88
2018-12-17T23:43:02.766Z,7.30
2018-12-17T23:45:30.399Z,11.57
2018-12-17T23:47:58.051Z,10.50
2018-12-17T23:50:25.647Z,8.28
2018-12-17T23:52:53.405Z,8.10
2018-12-17T23:55:21.021Z,9.28
2018-12-17T23:57:48.621Z,11.78
